createdAt,value
2018-07-01T00:00:27.222Z,72.90
2018-07-01T00:02:55.750Z,73.40
2018-07-01T00:05:24.245Z,74.30
2018-07-01T00:07:53.151Z,74.20
2018-07-01T00:10:21.678Z,74.90
2018-07-01T00:12:56.919Z,75.70
2018-07-01T00:15:25.386Z,75.40
2018-07-01T00:17:53.882Z,75.20
2018-07-01T00:20:22.431Z,76.70
2018-07-01T00:22:51.060Z,77.40
2018-07-01T00:25:19.606Z,78.40
2018-07-01T00:27:54.729Z,77.80
2018-07-01T00:30:23.986Z,78.30
2018-07-01T00:32:52.549Z,78.60
2018-07-01T00:35:21.099Z,79.30
2018-07-01T00:37:49.609Z,79.70
2018-07-01T00:40:18.134Z,79.90
2018-07-01T00:42:46.697Z,80.10
2018-07-01T00:45:15.250Z,80.70
2018-07-01T00:47:43.856Z,81.00
2018-07-01T00:50:12.900Z,81.10
2018-07-01T00:52:41.453Z,80.90
2018-07-01T00:55:10.006Z,80.80
2018-07-01T00:57:38.604Z,81.00
2018-07-01T01:00:07.682Z,81.40
2018-07-01T01:02:36.217Z,82.20
2018-07-01T01:05:04.746Z,82.00
2018-07-01T01:07:33.207Z,82.80
2018-07-01T01:10:01.694Z,82.40
2018-07-01T01:12:30.312Z,83.30
2018-07-01T01:14:58.854Z,83.50
2018-07-01T01:17:27.422Z,83.50
2018-07-01T01:19:55.962Z,84.00
2018-07-01T01:22:31.104Z,84.10
2018-07-01T01:24:59.695Z,84.30
2018-07-01T01:27:28.156Z,84.20
2018-07-01T01:29:56.803Z,84.60
2018-07-01T01:32:25.389Z,85.20
2018-07-01T01:34:53.914Z,85.50
2018-07-01T01:37:22.506Z,86.10
2018-07-01T01:39:51.115Z,86.30
2018-07-01T01:42:24.109Z,86.70
2018-07-01T01:44:58.166Z,86.20
2018-07-01T01:47:49.694Z,86.30
2018-07-01T01:50:34.906Z,86.30
2018-07-01T01:53:09.851Z,86.30
2018-07-01T01:55:57.678Z,86.60
2018-07-01T01:58:37.249Z,86.30
2018-07-01T02:01:12.706Z,85.70
2018-07-01T02:03:46.566Z,87.40
2018-07-01T02:06:20.071Z,87.50
2018-07-01T02:08:55.326Z,86.90
2018-07-01T02:11:24.593Z,86.80
2018-07-01T02:13:56.513Z,87.40
2018-07-01T02:16:32.989Z,88.40
2018-07-01T02:19:01.624Z,88.90
2018-07-01T02:21:30.226Z,88.70
2018-07-01T02:24:03.565Z,88.80
2018-07-01T02:26:32.849Z,88.70
2018-07-01T02:29:01.870Z,89.00
2018-07-01T02:31:30.417Z,89.50
2018-07-01T02:33:58.937Z,89.90
2018-07-01T02:36:27.446Z,90.30
2018-07-01T02:38:55.935Z,90.20
2018-07-01T02:41:24.397Z,90.40
2018-07-01T02:43:52.905Z,90.70
2018-07-01T02:46:21.375Z,91.00
2018-07-01T02:48:49.949Z,91.10
2018-07-01T02:51:19.217Z,91.30
2018-07-01T02:53:48.498Z,91.20
2018-07-01T02:56:16.950Z,91.40
2018-07-01T02:58:46.098Z,91.50
2018-07-01T03:01:15.366Z,91.60
2018-07-01T03:03:43.865Z,91.90
2018-07-01T03:06:12.482Z,91.80
2018-07-01T03:08:41.014Z,91.90
2018-07-01T03:11:09.993Z,91.90
2018-07-01T03:13:39.021Z,92.10
2018-07-01T03:16:07.557Z,92.20
2018-07-01T03:18:36.034Z,92.60
2018-07-01T03:21:04.694Z,92.50
2018-07-01T03:23:33.261Z,92.60
2018-07-01T03:26:01.795Z,92.60
2018-07-01T03:28:30.311Z,92.80
2018-07-01T03:30:59.538Z,93.00
2018-07-01T03:33:28.030Z,93.20
2018-07-01T03:35:57.081Z,93.30
2018-07-01T03:38:26.165Z,93.50
2018-07-01T03:40:54.801Z,93.90
2018-07-01T03:43:23.384Z,94.10
2018-07-01T03:45:52.582Z,94.20
2018-07-01T03:48:22.037Z,94.20
2018-07-01T03:50:50.665Z,94.40
2018-07-01T03:53:19.281Z,94.40
2018-07-01T03:55:48.353Z,94.20
2018-07-01T03:58:17.661Z,94.50
2018-07-01T04:00:46.131Z,94.70
2018-07-01T04:03:14.595Z,94.10
2018-07-01T04:05:43.179Z,94.10
2018-07-01T04:08:11.749Z,94.20
2018-07-01T04:10:40.899Z,93.80
2018-07-01T04:13:09.412Z,94.10
2018-07-01T04:15:38.004Z,94.20
2018-07-01T04:18:06.818Z,94.30
2018-07-01T04:20:35.348Z,94.10
2018-07-01T04:23:03.859Z,94.40
2018-07-01T04:25:32.346Z,93.90
2018-07-01T04:28:01.630Z,94.40
2018-07-01T04:30:30.135Z,94.70
2018-07-01T04:32:58.646Z,94.40
2018-07-01T04:35:27.176Z,94.50
2018-07-01T04:37:55.762Z,94.60
2018-07-01T04:40:24.313Z,94.90
2018-07-01T04:42:53.540Z,94.40
2018-07-01T04:45:22.176Z,94.20
2018-07-01T04:47:50.894Z,94.50
2018-07-01T04:50:19.491Z,94.30
2018-07-01T04:52:48.030Z,94.50
2018-07-01T04:55:16.550Z,94.30
2018-07-01T04:57:45.700Z,94.30
2018-07-01T05:00:14.278Z,94.70
2018-07-01T05:02:42.832Z,94.30
2018-07-01T05:05:12.246Z,94.50
2018-07-01T05:07:40.810Z,94.40
2018-07-01T05:10:09.350Z,94.40
2018-07-01T05:12:37.940Z,94.10
2018-07-01T05:15:06.626Z,94.10
2018-07-01T05:17:35.106Z,93.40
2018-07-01T05:20:04.210Z,92.50
2018-07-01T05:22:32.718Z,92.20
2018-07-01T05:25:01.266Z,91.30
2018-07-01T05:27:30.366Z,92.30
2018-07-01T05:29:59.472Z,91.20
2018-07-01T05:32:27.939Z,91.00
2018-07-01T05:34:56.509Z,90.50
2018-07-01T05:37:25.505Z,90.30
2018-07-01T05:39:54.065Z,89.30
2018-07-01T05:42:22.549Z,89.60
2018-07-01T05:44:51.173Z,88.70
2018-07-01T05:47:22.653Z,88.20
2018-07-01T05:49:51.854Z,88.50
2018-07-01T05:52:21.154Z,87.90
2018-07-01T05:54:49.754Z,87.40
2018-07-01T05:57:18.249Z,88.60
2018-07-01T05:59:46.881Z,86.60
2018-07-01T06:02:16.334Z,87.10
2018-07-01T06:04:45.070Z,85.90
2018-07-01T06:07:13.716Z,87.30
2018-07-01T06:09:42.243Z,86.00
2018-07-01T06:12:10.805Z,85.80
2018-07-01T06:14:39.344Z,85.80
2018-07-01T06:17:07.875Z,85.40
2018-07-01T06:19:36.371Z,84.70
2018-07-01T06:22:04.974Z,85.60
2018-07-01T06:24:33.610Z,84.80
2018-07-01T06:27:02.101Z,85.40
2018-07-01T06:29:30.670Z,86.20
2018-07-01T06:31:59.994Z,85.50
2018-07-01T06:34:28.516Z,84.80
2018-07-01T06:36:57.079Z,85.00
2018-07-01T06:39:25.702Z,83.00
2018-07-01T06:41:54.322Z,83.50
2018-07-01T06:44:22.769Z,83.40
2018-07-01T06:46:51.853Z,83.70
2018-07-01T06:49:20.395Z,84.00
2018-07-01T06:51:48.849Z,83.90
2018-07-01T06:54:18.114Z,83.70
2018-07-01T06:56:46.576Z,82.10
2018-07-01T06:59:15.206Z,82.00
2018-07-01T07:01:43.853Z,82.30
2018-07-01T07:04:12.461Z,80.00
2018-07-01T07:06:41.061Z,79.70
2018-07-01T07:09:11.698Z,80.10
2018-07-01T07:11:40.241Z,80.80
2018-07-01T07:14:09.746Z,80.20
2018-07-01T07:16:38.290Z,80.80
2018-07-01T07:19:07.098Z,78.70
2018-07-01T07:21:35.698Z,79.60
2018-07-01T07:24:04.270Z,78.30
2018-07-01T07:26:32.898Z,78.80
2018-07-01T07:29:01.414Z,78.00
2018-07-01T07:31:30.006Z,78.90
2018-07-01T07:33:58.564Z,80.10
2018-07-01T07:36:27.085Z,80.20
2018-07-01T07:38:55.797Z,79.00
2018-07-01T07:41:24.468Z,77.60
2018-07-01T07:43:53.369Z,75.50
2018-07-01T07:46:22.811Z,75.10
2018-07-01T07:48:51.320Z,75.80
2018-07-01T07:51:20.494Z,75.60
2018-07-01T07:53:48.990Z,75.50
2018-07-01T07:56:17.851Z,74.20
2018-07-01T07:58:47.155Z,72.50
2018-07-01T08:01:15.593Z,74.30
2018-07-01T08:03:44.099Z,72.50
2018-07-01T08:06:12.785Z,72.40
2018-07-01T08:08:41.251Z,72.10
2018-07-01T08:11:09.874Z,70.20
2018-07-01T08:13:38.658Z,70.20
2018-07-01T08:16:07.467Z,69.60
2018-07-01T08:18:36.761Z,68.30
2018-07-01T08:21:05.241Z,65.90
2018-07-01T08:23:34.013Z,67.40
2018-07-01T08:26:02.618Z,68.00
2018-07-01T08:28:31.143Z,70.00
2018-07-01T08:31:02.563Z,67.60
2018-07-01T08:33:31.192Z,65.10
2018-07-01T08:35:59.779Z,68.10
2018-07-01T08:38:28.337Z,66.10
2018-07-01T08:40:57.070Z,63.40
2018-07-01T08:43:25.610Z,62.40
2018-07-01T08:45:54.104Z,64.60
2018-07-01T08:48:22.796Z,65.10
2018-07-01T08:50:51.384Z,63.10
2018-07-01T08:53:19.889Z,63.10
2018-07-01T08:55:48.564Z,65.10
2018-07-01T08:58:17.120Z,64.00
2018-07-01T09:00:45.685Z,63.70
2018-07-01T09:03:14.208Z,63.50
2018-07-01T09:05:42.750Z,61.80
2018-07-01T09:08:11.494Z,59.10
2018-07-01T09:10:40.045Z,58.00
2018-07-01T09:13:08.671Z,57.90
2018-07-01T09:15:37.495Z,58.10
2018-07-01T09:18:06.253Z,56.30
2018-07-01T09:20:34.884Z,54.90
2018-07-01T09:23:04.063Z,58.50
2018-07-01T09:25:33.580Z,55.80
2018-07-01T09:28:02.544Z,59.60
2018-07-01T09:30:31.181Z,61.60
2018-07-01T09:33:00.021Z,54.70
2018-07-01T09:35:28.574Z,59.50
2018-07-01T09:37:57.459Z,58.70
2018-07-01T09:40:26.037Z,55.80
2018-07-01T09:42:54.763Z,58.90
2018-07-01T09:45:24.196Z,56.00
2018-07-01T09:47:52.864Z,57.00
2018-07-01T09:50:21.646Z,57.80
2018-07-01T09:52:50.929Z,58.80
2018-07-01T09:55:19.995Z,56.30
2018-07-01T09:57:48.906Z,56.80
2018-07-01T10:00:17.665Z,56.50
2018-07-01T10:02:46.292Z,59.50
2018-07-01T10:05:14.885Z,55.10
2018-07-01T10:07:44.334Z,54.40
2018-07-01T10:10:13.413Z,56.60
2018-07-01T10:12:42.923Z,54.70
2018-07-01T10:15:11.622Z,55.50
2018-07-01T10:17:40.230Z,57.90
2018-07-01T10:20:09.498Z,57.30
2018-07-01T10:22:38.264Z,54.60
2018-07-01T10:25:06.864Z,54.70
2018-07-01T10:27:36.358Z,53.50
2018-07-01T10:30:06.426Z,54.90
2018-07-01T10:32:35.102Z,55.70
2018-07-01T10:35:03.745Z,56.70
2018-07-01T10:37:32.392Z,55.40
2018-07-01T10:40:01.161Z,56.90
2018-07-01T10:42:30.001Z,56.00
2018-07-01T10:44:59.322Z,53.00
2018-07-01T10:47:28.062Z,54.10
2018-07-01T10:49:57.358Z,51.20
2018-07-01T10:52:25.996Z,55.00
2018-07-01T10:54:54.609Z,54.40
2018-07-01T10:57:23.229Z,50.50
2018-07-01T10:59:51.821Z,51.00
2018-07-01T11:02:20.525Z,50.90
2018-07-01T11:04:49.137Z,52.80
2018-07-01T11:07:17.722Z,50.90
2018-07-01T11:09:46.419Z,51.30
2018-07-01T11:12:15.183Z,49.80
2018-07-01T11:14:44.052Z,48.90
2018-07-01T11:17:12.723Z,52.00
2018-07-01T11:19:41.973Z,50.00
2018-07-01T11:22:11.258Z,52.50
2018-07-01T11:24:40.024Z,51.60
2018-07-01T11:27:09.234Z,49.70
2018-07-01T11:29:37.833Z,50.00
2018-07-01T11:32:06.595Z,51.80
2018-07-01T11:34:35.317Z,50.20
2018-07-01T11:37:04.758Z,51.80
2018-07-01T11:39:33.326Z,50.00
2018-07-01T11:42:01.835Z,50.10
2018-07-01T11:44:30.459Z,49.90
2018-07-01T11:46:59.461Z,50.30
2018-07-01T11:49:28.134Z,52.00
2018-07-01T11:51:56.729Z,50.10
2018-07-01T11:54:26.150Z,50.60
2018-07-01T11:56:54.910Z,50.80
2018-07-01T11:59:23.505Z,49.20
2018-07-01T12:01:52.031Z,51.80
2018-07-01T12:04:23.249Z,50.30
2018-07-01T12:06:52.446Z,50.00
2018-07-01T12:09:20.966Z,49.50
2018-07-01T12:11:49.778Z,50.00
2018-07-01T12:14:19.264Z,50.80
2018-07-01T12:16:47.880Z,49.70
2018-07-01T12:19:16.485Z,51.10
2018-07-01T12:21:45.640Z,48.70
2018-07-01T12:24:14.218Z,48.70
2018-07-01T12:26:42.824Z,49.10
2018-07-01T12:29:11.434Z,48.10
2018-07-01T12:31:40.250Z,49.70
2018-07-01T12:34:08.857Z,49.60
2018-07-01T12:36:38.115Z,50.60
2018-07-01T12:39:09.210Z,51.00
2018-07-01T12:41:38.470Z,48.90
2018-07-01T12:44:07.113Z,49.00
2018-07-01T12:46:35.782Z,49.10
2018-07-01T12:49:04.441Z,48.00
2018-07-01T12:51:33.032Z,47.30
2018-07-01T12:54:01.694Z,48.50
2018-07-01T12:56:30.274Z,48.40
2018-07-01T12:58:58.805Z,47.00
2018-07-01T13:01:27.343Z,46.90
2018-07-01T13:03:56.679Z,46.30
2018-07-01T13:06:25.194Z,46.40
2018-07-01T13:08:53.750Z,46.70
2018-07-01T13:11:22.276Z,47.20
2018-07-01T13:13:51.449Z,48.80
2018-07-01T13:16:20.142Z,46.30
2018-07-01T13:18:48.910Z,48.40
2018-07-01T13:21:17.446Z,48.30
2018-07-01T13:23:46.079Z,46.70
2018-07-01T13:26:14.618Z,47.40
2018-07-01T13:28:43.170Z,47.60
2018-07-01T13:31:11.668Z,47.50
2018-07-01T13:33:41.594Z,46.10
2018-07-01T13:36:10.688Z,46.10
2018-07-01T13:38:39.921Z,45.60
2018-07-01T13:41:08.686Z,46.20
2018-07-01T13:43:37.262Z,45.80
2018-07-01T13:46:06.151Z,47.00
2018-07-01T13:48:34.723Z,46.00
2018-07-01T13:51:03.283Z,44.90
2018-07-01T13:53:31.965Z,45.80
2018-07-01T13:56:00.477Z,47.10
2018-07-01T13:58:29.065Z,45.90
2018-07-01T14:00:57.709Z,46.20
2018-07-01T14:03:26.300Z,47.40
2018-07-01T14:05:54.816Z,48.60
2018-07-01T14:08:23.379Z,46.70
2018-07-01T14:10:51.844Z,45.80
2018-07-01T14:13:20.358Z,46.80
2018-07-01T14:15:48.890Z,49.10
2018-07-01T14:18:17.524Z,47.80
2018-07-01T14:20:46.140Z,48.10
2018-07-01T14:23:14.763Z,48.70
2018-07-01T14:25:43.318Z,47.10
2018-07-01T14:28:11.902Z,47.00
2018-07-01T14:30:40.578Z,46.90
2018-07-01T14:33:09.126Z,47.30
2018-07-01T14:35:37.686Z,47.00
2018-07-01T14:38:06.225Z,47.90
2018-07-01T14:40:34.737Z,47.30
2018-07-01T14:43:04.018Z,45.90
2018-07-01T14:45:32.610Z,46.50
2018-07-01T14:48:01.227Z,47.30
2018-07-01T14:50:30.526Z,47.60
2018-07-01T14:52:59.187Z,47.00
2018-07-01T14:55:27.698Z,47.10
2018-07-01T14:57:56.201Z,46.30
2018-07-01T15:00:24.830Z,45.60
2018-07-01T15:02:53.323Z,46.30
2018-07-01T15:05:22.355Z,48.90
2018-07-01T15:07:50.911Z,47.30
2018-07-01T15:10:19.452Z,47.70
2018-07-01T15:12:47.954Z,47.20
2018-07-01T15:15:16.994Z,48.20
2018-07-01T15:17:45.566Z,48.40
2018-07-01T15:20:14.071Z,46.70
2018-07-01T15:22:43.284Z,46.90
2018-07-01T15:25:11.856Z,47.90
2018-07-01T15:27:40.394Z,47.00
2018-07-01T15:30:09.172Z,46.60
2018-07-01T15:32:37.823Z,47.50
2018-07-01T15:35:06.386Z,46.40
2018-07-01T15:37:34.979Z,46.90
2018-07-01T15:40:03.651Z,45.70
2018-07-01T15:42:32.159Z,47.50
2018-07-01T15:45:00.854Z,47.10
2018-07-01T15:47:29.508Z,46.60
2018-07-01T15:49:58.200Z,46.00
2018-07-01T15:52:27.518Z,46.00
2018-07-01T15:54:56.085Z,45.90
2018-07-01T15:57:25.013Z,48.40
2018-07-01T15:59:53.657Z,47.20
2018-07-01T16:02:22.220Z,47.10
2018-07-01T16:04:50.743Z,46.10
2018-07-01T16:20:17.706Z,46.70
2018-07-01T16:22:46.483Z,44.90
2018-07-01T16:25:20.118Z,46.60
2018-07-01T16:27:53.971Z,47.10
2018-07-01T16:30:22.697Z,47.10
2018-07-01T16:32:51.241Z,45.60
2018-07-01T16:35:19.738Z,44.90
2018-07-01T16:37:48.269Z,45.60
2018-07-01T16:40:16.884Z,45.40
2018-07-01T16:42:45.603Z,45.80
2018-07-01T16:45:14.174Z,46.00
2018-07-01T16:55:07.674Z,48.20
2018-07-01T16:57:36.146Z,50.90
2018-07-01T17:00:05.783Z,47.60
2018-07-01T17:02:34.953Z,47.90
2018-07-01T17:05:03.549Z,48.50
2018-07-01T17:07:32.041Z,47.90
2018-07-01T17:10:00.512Z,48.40
2018-07-01T17:14:57.751Z,47.00
2018-07-01T17:17:26.320Z,48.90
2018-07-01T17:19:54.809Z,49.00
2018-07-01T17:22:23.453Z,48.40
2018-07-01T17:24:51.964Z,48.90
2018-07-01T17:27:21.514Z,48.70
2018-07-01T17:29:50.053Z,47.90
2018-07-01T17:32:23.762Z,48.70
2018-07-01T17:34:52.945Z,47.80
2018-07-01T17:37:22.262Z,48.50
2018-07-01T17:39:50.814Z,47.80
2018-07-01T17:42:20.604Z,48.30
2018-07-01T17:44:49.269Z,47.50
2018-07-01T17:47:17.807Z,47.70
2018-07-01T17:49:46.304Z,48.50
2018-07-01T17:52:14.792Z,48.40
2018-07-01T17:54:43.452Z,48.30
2018-07-01T17:57:11.972Z,48.20
2018-07-01T17:59:40.591Z,49.20
2018-07-01T18:02:09.098Z,48.90
2018-07-01T18:04:37.771Z,48.90
2018-07-01T18:07:06.275Z,49.10
2018-07-01T18:09:35.533Z,48.80
2018-07-01T18:12:04.023Z,49.90
2018-07-01T18:14:32.574Z,50.00
2018-07-01T18:17:01.135Z,49.30
2018-07-01T18:19:29.656Z,49.30
2018-07-01T18:22:21.715Z,49.50
2018-07-01T18:24:48.930Z,49.40
2018-07-01T18:26:55.697Z,50.00
2018-07-01T18:29:24.795Z,49.00
2018-07-01T18:31:53.337Z,49.20
2018-07-01T18:34:21.884Z,49.40
2018-07-01T18:36:50.442Z,49.90
2018-07-01T18:39:19.049Z,50.40
2018-07-01T18:41:47.641Z,49.40
2018-07-01T18:44:16.112Z,49.80
2018-07-01T18:46:44.669Z,50.30
2018-07-01T18:49:13.130Z,50.40
2018-07-01T18:51:41.666Z,50.90
2018-07-01T18:54:10.304Z,50.70
2018-07-01T18:56:39.640Z,51.50
2018-07-01T18:59:08.156Z,51.80
2018-07-01T19:01:36.798Z,51.80
2018-07-01T19:04:05.418Z,52.20
2018-07-01T19:06:33.969Z,52.10
2018-07-01T19:11:45.399Z,54.30
2018-07-01T19:14:14.022Z,54.90
2018-07-01T19:16:42.516Z,54.90
2018-07-01T19:19:11.157Z,55.10
2018-07-01T19:21:39.653Z,55.90
2018-07-01T19:24:09.042Z,56.10
2018-07-01T19:26:38.190Z,55.80
2018-07-01T19:29:06.736Z,56.10
2018-07-01T19:31:35.263Z,56.60
2018-07-01T19:34:03.953Z,55.80
2018-07-01T19:36:32.391Z,55.70
2018-07-01T19:39:00.950Z,56.70
2018-07-01T19:41:29.528Z,55.80
2018-07-01T19:43:58.163Z,55.40
2018-07-01T19:46:26.602Z,56.50
2018-07-01T19:48:55.214Z,56.30
2018-07-01T19:51:23.747Z,56.20
2018-07-01T19:53:52.728Z,57.00
2018-07-01T19:56:21.322Z,57.10
2018-07-01T19:58:49.763Z,57.50
2018-07-01T20:01:18.445Z,57.60
2018-07-01T20:03:46.927Z,57.90
2018-07-01T20:06:15.542Z,57.70
2018-07-01T20:08:44.044Z,58.10
2018-07-01T20:11:12.532Z,58.80
2018-07-01T20:13:41.080Z,58.60
2018-07-01T20:16:09.671Z,59.30
2018-07-01T20:18:38.189Z,59.30
2018-07-01T20:21:06.644Z,59.00
2018-07-01T20:23:35.090Z,59.30
2018-07-01T20:26:03.678Z,59.80
2018-07-01T20:28:32.148Z,60.40
2018-07-01T20:31:00.647Z,60.20
2018-07-01T20:33:29.765Z,60.40
2018-07-01T20:35:58.215Z,60.70
2018-07-01T20:38:26.881Z,60.50
2018-07-01T20:40:55.502Z,60.90
2018-07-01T20:43:23.964Z,61.00
2018-07-01T20:45:52.718Z,61.20
2018-07-01T20:48:21.426Z,61.60
2018-07-01T20:50:50.027Z,61.60
2018-07-01T20:53:18.575Z,62.10
2018-07-01T20:55:47.881Z,62.50
2018-07-01T20:58:16.441Z,62.60
2018-07-01T21:00:45.041Z,63.60
2018-07-01T21:03:13.524Z,63.10
2018-07-01T21:05:42.084Z,63.00
2018-07-01T21:08:10.557Z,63.90
2018-07-01T21:10:39.138Z,64.20
2018-07-01T21:13:07.806Z,65.10
2018-07-01T21:15:36.322Z,66.00
2018-07-01T21:18:05.049Z,66.50
2018-07-01T21:20:33.759Z,67.50
2018-07-01T21:23:02.396Z,68.50
2018-07-01T21:25:30.982Z,69.60
2018-07-01T21:27:59.592Z,71.10
2018-07-01T21:30:28.152Z,72.30
2018-07-01T21:32:56.612Z,73.40
2018-07-01T21:35:25.161Z,74.20
2018-07-01T21:37:53.733Z,75.00
2018-07-01T21:40:22.338Z,75.90
2018-07-01T21:42:50.821Z,76.80
2018-07-01T21:45:19.432Z,77.50
2018-07-01T21:47:48.130Z,78.10
2018-07-01T21:50:16.775Z,78.50
2018-07-01T21:52:45.836Z,79.00
2018-07-01T21:55:14.379Z,78.80
2018-07-01T21:57:42.911Z,79.10
2018-07-01T22:00:11.838Z,78.80
2018-07-01T22:02:40.416Z,81.00
2018-07-01T22:05:09.249Z,81.00
2018-07-01T22:07:38.125Z,82.50
2018-07-01T22:10:06.774Z,82.40
2018-07-01T22:12:47.454Z,83.10
2018-07-01T22:15:27.774Z,82.90
2018-07-01T22:17:57.170Z,82.70
2018-07-01T22:20:26.220Z,83.80
2018-07-01T22:22:54.812Z,84.50
2018-07-01T22:25:23.435Z,84.50
2018-07-01T22:27:52.201Z,85.00
2018-07-01T22:30:21.091Z,85.50
2018-07-01T22:32:50.075Z,86.30
2018-07-01T22:35:18.691Z,86.10
2018-07-01T22:37:47.454Z,85.80
2018-07-01T22:40:16.063Z,86.50
2018-07-01T22:42:44.615Z,86.00
2018-07-01T22:45:13.254Z,87.00
2018-07-01T22:47:41.810Z,87.30
2018-07-01T22:50:11.101Z,87.00
2018-07-01T22:52:39.825Z,87.00
2018-07-01T22:55:08.511Z,86.70
2018-07-01T22:57:37.196Z,87.50
2018-07-01T23:00:06.835Z,88.40
2018-07-01T23:03:04.987Z,88.40
2018-07-01T23:05:33.643Z,89.30
2018-07-01T23:08:02.313Z,89.40
2018-07-01T23:10:31.688Z,89.00
2018-07-01T23:13:00.691Z,89.00
2018-07-01T23:15:29.509Z,89.40
2018-07-01T23:17:58.217Z,89.10
2018-07-01T23:20:26.944Z,89.70
2018-07-01T23:22:55.874Z,89.60
2018-07-01T23:25:24.515Z,90.00
2018-07-01T23:27:53.059Z,90.00
2018-07-01T23:30:21.910Z,90.30
2018-07-01T23:32:50.500Z,90.40
2018-07-01T23:35:19.363Z,91.20
2018-07-01T23:37:48.002Z,91.80
2018-07-01T23:40:16.530Z,92.10
2018-07-01T23:42:45.094Z,91.90
2018-07-01T23:45:14.919Z,91.80
2018-07-01T23:47:43.753Z,91.60
2018-07-01T23:50:12.330Z,91.40
2018-07-01T23:52:40.922Z,91.90
2018-07-01T23:55:09.867Z,91.50
2018-07-01T23:57:39.141Z,91.40
